createdAt,value
2023-04-22T00:01:04.415Z,7.60
2023-04-22T00:03:31.428Z,7.60
2023-04-22T00:05:58.459Z,7.50
2023-04-22T00:08:25.661Z,7.50
2023-04-22T00:10:52.386Z,7.60
2023-04-22T00:13:19.668Z,7.50
2023-04-22T00:15:46.475Z,7.50
2023-04-22T00:18:14.319Z,7.50
2023-04-22T00:20:44.298Z,7.50
2023-04-22T00:23:12.103Z,7.50
2023-04-22T00:25:40.074Z,7.40
2023-04-22T00:28:07.499Z,7.50
2023-04-22T00:30:34.894Z,7.50
2023-04-22T00:33:03.914Z,7.50
2023-04-22T00:35:30.881Z,7.50
2023-04-22T00:37:57.788Z,7.50
2023-04-22T00:40:24.657Z,7.50
2023-04-22T00:42:51.532Z,7.50
2023-04-22T00:45:21.127Z,7.50
2023-04-22T00:47:51.240Z,7.50
2023-04-22T00:50:18.582Z,7.60
2023-04-22T00:52:45.322Z,7.60
2023-04-22T00:55:12.410Z,7.50
2023-04-22T00:57:40.418Z,7.50
2023-04-22T01:00:09.798Z,7.40
2023-04-22T01:02:38.831Z,7.40
2023-04-22T01:05:06.450Z,7.40
2023-04-22T01:07:33.193Z,7.30
2023-04-22T01:10:00.241Z,7.30
2023-04-22T01:12:27.052Z,7.30
2023-04-22T01:14:53.947Z,7.20
2023-04-22T01:17:22.165Z,7.20
2023-04-22T01:19:49.057Z,7.10
2023-04-22T01:22:16.615Z,7.10
2023-04-22T01:24:43.610Z,7.10
2023-04-22T01:27:11.014Z,7.00
2023-04-22T01:29:38.959Z,7.00
2023-04-22T01:32:06.609Z,7.00
2023-04-22T01:34:33.659Z,7.00
2023-04-22T01:37:00.508Z,7.00
2023-04-22T01:39:27.703Z,7.00
2023-04-22T01:41:55.711Z,7.10
2023-04-22T01:44:23.147Z,7.00
2023-04-22T01:46:50.003Z,7.00
2023-04-22T01:49:16.708Z,7.00
2023-04-22T01:51:43.452Z,6.90
2023-04-22T01:54:10.363Z,6.90
2023-04-22T01:56:38.841Z,6.90
2023-04-22T01:59:05.616Z,6.80
2023-04-22T02:01:32.633Z,6.80
2023-04-22T02:03:59.403Z,6.70
2023-04-22T02:06:27.426Z,6.70
2023-04-22T02:08:54.260Z,6.60
2023-04-22T02:11:21.307Z,6.60
2023-04-22T02:13:48.061Z,6.60
2023-04-22T02:16:15.332Z,6.60
2023-04-22T02:18:42.073Z,6.60
2023-04-22T02:21:09.731Z,6.60
2023-04-22T02:23:38.420Z,6.50
2023-04-22T02:26:05.865Z,6.50
2023-04-22T02:28:32.585Z,6.50
2023-04-22T02:30:59.497Z,6.40
2023-04-22T02:33:26.433Z,6.40
2023-04-22T02:35:53.190Z,6.40
2023-04-22T02:38:20.114Z,6.40
2023-04-22T02:40:46.984Z,6.40
2023-04-22T02:43:14.024Z,6.30
2023-04-22T02:45:41.006Z,6.40
2023-04-22T02:48:08.207Z,6.40
2023-04-22T02:50:35.085Z,6.50
2023-04-22T02:53:01.796Z,6.50
2023-04-22T02:55:28.565Z,6.50
2023-04-22T02:57:55.301Z,6.50
2023-04-22T03:00:22.129Z,6.50
2023-04-22T03:02:48.927Z,6.60
2023-04-22T03:05:16.052Z,6.60
2023-04-22T03:07:42.798Z,6.50
2023-04-22T03:10:09.957Z,6.40
2023-04-22T03:12:36.707Z,6.40
2023-04-22T03:15:03.847Z,6.30
2023-04-22T03:17:30.761Z,6.30
2023-04-22T03:19:57.630Z,6.30
2023-04-22T03:22:24.448Z,6.20
2023-04-22T03:24:51.434Z,6.20
2023-04-22T03:27:18.298Z,6.20
2023-04-22T03:29:45.338Z,6.20
2023-04-22T03:32:12.270Z,6.10
2023-04-22T03:34:39.417Z,6.10
2023-04-22T03:37:06.199Z,6.10
2023-04-22T03:39:32.963Z,6.10
2023-04-22T03:41:59.845Z,6.10
2023-04-22T03:44:26.554Z,6.10
2023-04-22T03:46:53.248Z,6.00
2023-04-22T03:49:20.548Z,6.00
2023-04-22T03:51:47.251Z,6.00
2023-04-22T03:54:14.014Z,6.00
2023-04-22T03:56:41.213Z,5.90
2023-04-22T03:59:07.924Z,6.00
2023-04-22T04:01:34.628Z,6.00
2023-04-22T04:04:01.603Z,5.90
2023-04-22T04:06:29.073Z,5.90
2023-04-22T04:08:56.087Z,5.90
2023-04-22T04:11:22.775Z,6.00
2023-04-22T04:13:49.646Z,5.90
2023-04-22T04:16:16.857Z,6.00
2023-04-22T04:18:43.692Z,6.00
2023-04-22T04:21:10.642Z,6.00
2023-04-22T04:23:37.961Z,6.00
2023-04-22T04:26:06.051Z,6.10
2023-04-22T04:28:34.426Z,6.10
2023-04-22T04:31:02.749Z,6.10
2023-04-22T04:33:32.443Z,6.10
2023-04-22T04:35:59.762Z,6.20
2023-04-22T04:38:27.022Z,6.40
2023-04-22T04:40:53.791Z,6.40
2023-04-22T04:43:21.232Z,6.50
2023-04-22T04:45:48.860Z,6.50
2023-04-22T04:48:16.599Z,6.60
2023-04-22T04:50:43.471Z,6.70
2023-04-22T04:53:11.179Z,6.70
2023-04-22T04:55:38.729Z,6.80
2023-04-22T04:58:05.384Z,7.00
2023-04-22T05:00:32.232Z,7.10
2023-04-22T05:02:59.113Z,7.20
2023-04-22T05:05:27.418Z,7.30
2023-04-22T05:07:54.240Z,7.40
2023-04-22T05:10:21.506Z,7.60
2023-04-22T05:12:48.268Z,7.70
2023-04-22T05:15:15.683Z,7.80
2023-04-22T05:17:43.192Z,7.90
2023-04-22T05:20:10.503Z,8.00
2023-04-22T05:22:37.438Z,8.10
2023-04-22T05:25:05.001Z,8.20
2023-04-22T05:27:31.806Z,8.40
2023-04-22T05:29:58.620Z,8.40
2023-04-22T05:32:25.477Z,8.60
2023-04-22T05:34:52.262Z,8.70
2023-04-22T05:37:19.094Z,8.90
2023-04-22T05:39:46.184Z,9.00
2023-04-22T05:42:12.875Z,9.10
2023-04-22T05:44:39.674Z,9.30
2023-04-22T05:47:07.487Z,9.40
2023-04-22T05:49:34.198Z,9.60
2023-04-22T05:52:01.146Z,9.70
2023-04-22T05:54:29.346Z,9.80
2023-04-22T05:56:56.887Z,10.00
2023-04-22T05:59:23.782Z,10.20
2023-04-22T06:01:51.119Z,10.30
2023-04-22T06:04:19.501Z,10.40
2023-04-22T06:06:47.764Z,10.50
2023-04-22T06:09:14.583Z,10.70
2023-04-22T06:11:41.319Z,10.90
2023-04-22T06:14:08.150Z,11.00
2023-04-22T06:16:34.835Z,11.20
2023-04-22T06:19:01.518Z,11.40
2023-04-22T06:21:28.650Z,11.50
2023-04-22T06:23:56.040Z,11.60
2023-04-22T06:26:22.904Z,11.70
2023-04-22T06:28:49.773Z,11.80
2023-04-22T06:31:17.590Z,11.80
2023-04-22T06:33:47.015Z,12.00
2023-04-22T06:36:14.459Z,12.10
2023-04-22T06:38:41.159Z,12.10
2023-04-22T06:41:07.931Z,12.30
2023-04-22T06:43:34.594Z,12.40
2023-04-22T06:46:01.584Z,12.40
2023-04-22T06:48:28.327Z,12.50
2023-04-22T06:50:55.071Z,12.70
2023-04-22T06:53:21.769Z,12.70
2023-04-22T06:55:48.553Z,12.80
2023-04-22T06:58:15.289Z,13.00
2023-04-22T07:00:41.948Z,13.20
2023-04-22T07:03:08.723Z,13.30
2023-04-22T07:05:37.807Z,13.30
2023-04-22T07:08:05.229Z,13.30
2023-04-22T07:10:31.926Z,13.40
2023-04-22T07:12:58.723Z,13.40
2023-04-22T07:15:25.475Z,13.60
2023-04-22T07:17:52.244Z,13.70
2023-04-22T07:20:19.037Z,13.80
2023-04-22T07:22:45.704Z,13.80
2023-04-22T07:25:12.447Z,14.00
2023-04-22T07:27:39.423Z,14.10
2023-04-22T07:30:08.093Z,14.20
2023-04-22T07:32:34.811Z,14.30
2023-04-22T07:35:01.614Z,14.30
2023-04-22T07:37:28.392Z,14.40
2023-04-22T07:39:55.200Z,14.40
2023-04-22T07:42:22.059Z,14.60
2023-04-22T07:44:48.860Z,14.60
2023-04-22T07:47:16.673Z,14.60
2023-04-22T07:49:45.566Z,14.70
2023-04-22T07:52:12.302Z,14.90
2023-04-22T07:54:39.051Z,15.00
2023-04-22T07:57:05.909Z,15.10
2023-04-22T07:59:32.609Z,15.10
2023-04-22T08:01:59.346Z,15.10
2023-04-22T08:04:28.676Z,15.20
2023-04-22T08:06:56.247Z,15.30
2023-04-22T08:09:24.100Z,15.40
2023-04-22T08:11:52.855Z,15.40
2023-04-22T08:14:20.626Z,15.40
2023-04-22T08:16:50.055Z,15.50
2023-04-22T08:19:17.227Z,15.60
2023-04-22T08:21:44.734Z,15.80
2023-04-22T08:24:11.489Z,15.90
2023-04-22T08:26:39.914Z,16.30
2023-04-22T08:29:07.254Z,16.40
2023-04-22T08:31:34.640Z,16.30
2023-04-22T08:34:01.494Z,16.30
2023-04-22T08:36:28.474Z,16.30
2023-04-22T08:38:55.453Z,16.50
2023-04-22T08:41:26.004Z,16.50
2023-04-22T08:43:53.474Z,16.60
2023-04-22T08:46:20.773Z,16.40
2023-04-22T08:48:49.069Z,16.50
2023-04-22T08:51:17.242Z,16.70
2023-04-22T08:53:46.958Z,16.70
2023-04-22T08:56:14.408Z,16.70
2023-04-22T08:58:42.167Z,16.80
2023-04-22T09:01:10.167Z,17.10
2023-04-22T09:03:40.727Z,17.30
2023-04-22T09:06:10.487Z,17.40
2023-04-22T09:08:37.397Z,17.50
2023-04-22T09:11:04.746Z,17.60
2023-04-22T09:13:31.629Z,17.40
2023-04-22T09:15:59.982Z,17.40
2023-04-22T09:18:26.855Z,17.20
2023-04-22T09:20:56.911Z,17.30
2023-04-22T09:23:23.981Z,17.40
2023-04-22T09:25:50.935Z,17.50
2023-04-22T09:28:19.148Z,17.70
2023-04-22T09:30:46.923Z,17.70
2023-04-22T09:33:14.409Z,17.70
2023-04-22T09:35:42.353Z,17.70
2023-04-22T09:38:12.121Z,17.80
2023-04-22T09:40:43.142Z,17.90
2023-04-22T09:43:10.734Z,18.10
2023-04-22T09:45:42.474Z,18.20
2023-04-22T09:48:14.720Z,18.40
2023-04-22T09:50:47.254Z,19.00
2023-04-22T09:53:21.652Z,19.80
2023-04-22T09:55:50.994Z,20.50
2023-04-22T09:58:20.095Z,21.30
2023-04-22T10:00:53.626Z,21.50
2023-04-22T10:03:20.698Z,21.80
2023-04-22T10:05:47.924Z,22.10
2023-04-22T10:08:41.858Z,22.10
2023-04-22T10:11:11.099Z,22.20
2023-04-22T10:13:53.141Z,22.20
2023-04-22T10:16:22.499Z,22.20
2023-04-22T10:18:51.254Z,21.80
2023-04-22T10:21:19.606Z,21.00
2023-04-22T10:23:47.961Z,20.60
2023-04-22T10:26:43.715Z,20.70
2023-04-22T10:29:18.868Z,20.80
2023-04-22T10:31:52.222Z,20.60
2023-04-22T10:34:19.093Z,20.60
2023-04-22T10:37:06.356Z,20.60
2023-04-22T10:39:33.504Z,20.80
2023-04-22T10:42:03.265Z,20.50
2023-04-22T10:44:45.796Z,20.10
2023-04-22T10:47:12.514Z,20.00
2023-04-22T10:49:39.489Z,19.80
2023-04-22T10:52:15.375Z,19.70
2023-04-22T10:54:44.963Z,19.40
2023-04-22T10:57:19.575Z,19.10
2023-04-22T10:59:53.868Z,19.20
2023-04-22T11:02:22.585Z,19.50
2023-04-22T11:04:50.074Z,19.40
2023-04-22T11:07:30.796Z,19.30
2023-04-22T11:10:10.648Z,19.30
2023-04-22T11:12:42.054Z,19.50
2023-04-22T11:15:09.771Z,19.70
2023-04-22T11:17:42.080Z,19.60
2023-04-22T11:20:10.305Z,19.40
2023-04-22T11:22:38.571Z,19.30
2023-04-22T11:25:06.377Z,19.20
2023-04-22T11:27:33.303Z,19.00
2023-04-22T11:30:04.716Z,18.70
2023-04-22T11:32:32.644Z,18.40
2023-04-22T11:35:02.792Z,18.30
2023-04-22T11:37:29.475Z,18.10
2023-04-22T11:42:36.468Z,18.20
2023-04-22T11:45:03.755Z,18.20
2023-04-22T11:47:30.881Z,18.10
2023-04-22T11:49:59.389Z,18.10
2023-04-22T11:52:45.362Z,18.20
2023-04-22T11:55:16.545Z,18.40
2023-04-22T11:57:45.669Z,18.40
2023-04-22T12:00:14.895Z,18.50
2023-04-22T12:02:42.165Z,18.60
2023-04-22T12:05:12.765Z,18.70
2023-04-22T12:07:39.898Z,18.70
2023-04-22T12:10:14.444Z,18.60
2023-04-22T12:12:41.225Z,18.80
2023-04-22T12:15:13.877Z,19.10
2023-04-22T12:17:40.885Z,19.20
2023-04-22T12:20:13.060Z,19.20
2023-04-22T12:22:39.917Z,19.50
2023-04-22T12:25:07.083Z,19.60
2023-04-22T12:27:34.049Z,19.70
2023-04-22T12:30:00.831Z,19.60
2023-04-22T12:32:27.827Z,19.80
2023-04-22T12:34:54.558Z,19.60
2023-04-22T12:37:21.231Z,19.60
2023-04-22T12:39:48.234Z,19.80
2023-04-22T12:42:14.988Z,19.70
2023-04-22T12:44:42.867Z,19.70
2023-04-22T12:47:09.954Z,19.80
2023-04-22T12:49:38.590Z,19.70
2023-04-22T12:52:05.817Z,19.70
2023-04-22T12:54:32.719Z,19.70
2023-04-22T12:56:59.560Z,19.60
2023-04-22T12:59:26.260Z,19.50
2023-04-22T13:01:54.781Z,19.50
2023-04-22T13:04:21.790Z,19.50
2023-04-22T13:06:55.987Z,19.60
2023-04-22T13:09:24.699Z,19.50
2023-04-22T13:11:52.157Z,19.30
2023-04-22T13:14:19.187Z,19.40
2023-04-22T13:16:46.018Z,19.30
2023-04-22T13:19:13.153Z,19.20
2023-04-22T13:21:40.038Z,19.00
2023-04-22T13:24:06.945Z,19.00
2023-04-22T13:26:33.804Z,19.10
2023-04-22T13:29:02.653Z,19.10
2023-04-22T13:31:29.630Z,19.10
2023-04-22T13:33:56.449Z,19.20
2023-04-22T13:36:23.230Z,19.20
2023-04-22T13:38:51.083Z,19.10
2023-04-22T13:41:17.834Z,19.00
2023-04-22T13:43:44.654Z,18.90
2023-04-22T13:46:11.409Z,18.90
2023-04-22T13:48:38.098Z,18.80
2023-04-22T13:51:05.091Z,18.70
2023-04-22T13:53:34.056Z,18.70
2023-04-22T13:56:01.306Z,18.70
2023-04-22T13:58:28.170Z,18.60
2023-04-22T14:00:55.005Z,18.50
2023-04-22T14:03:22.079Z,18.50
2023-04-22T14:05:49.045Z,18.50
2023-04-22T14:08:15.913Z,18.40
2023-04-22T14:10:42.630Z,18.40
2023-04-22T14:13:09.352Z,18.40
2023-04-22T14:15:36.150Z,18.40
2023-04-22T14:18:02.853Z,18.30
2023-04-22T14:20:29.610Z,18.30
2023-04-22T14:22:56.417Z,18.20
2023-04-22T14:25:23.226Z,18.10
2023-04-22T14:27:50.026Z,18.20
2023-04-22T14:30:18.443Z,18.20
2023-04-22T14:32:45.313Z,18.40
2023-04-22T14:35:12.153Z,18.40
2023-04-22T14:37:41.027Z,18.40
2023-04-22T14:40:08.662Z,18.40
2023-04-22T14:42:36.059Z,18.40
2023-04-22T14:45:03.324Z,18.40
2023-04-22T14:47:30.223Z,18.40
2023-04-22T14:49:57.006Z,18.50
2023-04-22T14:52:23.909Z,18.50
2023-04-22T14:54:52.077Z,18.50
2023-04-22T14:57:19.245Z,18.50
2023-04-22T14:59:46.289Z,18.40
2023-04-22T15:02:17.313Z,18.40
2023-04-22T15:04:44.522Z,18.40
2023-04-22T15:07:11.455Z,18.30
2023-04-22T15:09:38.905Z,18.30
2023-04-22T15:12:05.968Z,18.30
2023-04-22T15:14:35.517Z,18.20
2023-04-22T15:17:02.996Z,18.20
2023-04-22T15:19:30.137Z,18.20
2023-04-22T15:21:57.233Z,18.10
2023-04-22T15:24:24.799Z,18.20
2023-04-22T15:26:52.763Z,18.20
2023-04-22T15:29:19.932Z,18.10
2023-04-22T15:31:47.197Z,18.10
2023-04-22T15:34:14.134Z,18.10
2023-04-22T15:36:40.958Z,18.10
2023-04-22T15:39:10.755Z,18.10
2023-04-22T15:41:37.685Z,18.00
2023-04-22T15:44:08.391Z,18.00
2023-04-22T15:46:35.770Z,18.00
2023-04-22T15:49:03.887Z,17.90
2023-04-22T15:51:31.368Z,17.90
2023-04-22T15:53:58.789Z,17.90
2023-04-22T15:56:26.226Z,17.90
2023-04-22T15:58:52.931Z,17.90
2023-04-22T16:01:22.510Z,17.80
2023-04-22T16:03:49.591Z,17.80
2023-04-22T16:06:18.117Z,17.80
2023-04-22T16:08:45.645Z,17.70
2023-04-22T16:11:13.975Z,17.70
2023-04-22T16:13:40.770Z,17.70
2023-04-22T16:16:08.351Z,17.70
2023-04-22T16:18:35.399Z,17.60
2023-04-22T16:21:07.145Z,17.60
2023-04-22T16:23:34.854Z,17.50
2023-04-22T16:26:02.839Z,17.50
2023-04-22T16:28:30.136Z,17.40
2023-04-22T16:30:56.897Z,17.40
2023-04-22T16:33:24.434Z,17.30
2023-04-22T16:35:51.172Z,17.30
2023-04-22T16:38:17.947Z,17.20
2023-04-22T16:40:44.655Z,17.20
2023-04-22T16:43:14.256Z,17.10
2023-04-22T16:45:41.699Z,17.10
2023-04-22T16:48:08.902Z,17.00
2023-04-22T16:50:37.300Z,16.90
2023-04-22T16:53:04.046Z,16.90
2023-04-22T16:55:42.836Z,16.80
2023-04-22T16:58:09.725Z,16.80
2023-04-22T17:00:36.985Z,16.70
2023-04-22T17:03:04.501Z,16.70
2023-04-22T17:05:31.582Z,16.60
2023-04-22T17:07:58.330Z,16.60
2023-04-22T17:10:25.288Z,16.60
2023-04-22T17:12:53.553Z,16.60
2023-04-22T17:15:20.706Z,16.40
2023-04-22T17:17:47.599Z,16.40
2023-04-22T17:20:14.365Z,16.20
2023-04-22T17:22:41.264Z,16.10
2023-04-22T17:25:08.575Z,16.10
2023-04-22T17:27:35.258Z,16.00
2023-04-22T17:30:02.041Z,15.90
2023-04-22T17:32:31.311Z,15.80
2023-04-22T17:34:58.038Z,15.80
2023-04-22T17:37:25.838Z,15.70
2023-04-22T17:39:52.656Z,15.50
2023-04-22T17:42:20.316Z,15.40
2023-04-22T17:44:48.217Z,15.20
2023-04-22T17:47:14.895Z,15.10
2023-04-22T17:49:42.010Z,15.00
2023-04-22T17:52:09.086Z,14.90
2023-04-22T17:54:35.849Z,14.80
2023-04-22T17:57:03.237Z,14.60
2023-04-22T17:59:29.932Z,14.50
2023-04-22T18:01:56.752Z,14.40
2023-04-22T18:04:23.547Z,14.20
2023-04-22T18:06:50.230Z,14.10
2023-04-22T18:09:17.213Z,14.00
2023-04-22T18:11:43.906Z,13.90
2023-04-22T18:14:10.641Z,13.70
2023-04-22T18:16:37.385Z,13.60
2023-04-22T18:19:06.699Z,13.50
2023-04-22T18:21:39.626Z,13.50
2023-04-22T18:24:08.473Z,13.30
2023-04-22T18:26:35.231Z,13.30
2023-04-22T18:29:02.034Z,13.20
2023-04-22T18:31:28.897Z,13.10
2023-04-22T18:33:55.859Z,13.00
2023-04-22T18:36:23.205Z,12.90
2023-04-22T18:38:49.923Z,12.80
2023-04-22T18:41:16.972Z,12.80
2023-04-22T18:43:43.748Z,12.80
2023-04-22T18:46:10.591Z,12.70
2023-04-22T18:48:37.916Z,12.60
2023-04-22T18:51:04.889Z,12.50
2023-04-22T18:53:32.082Z,12.50
2023-04-22T18:55:58.887Z,12.50
2023-04-22T18:58:25.879Z,12.40
2023-04-22T19:00:53.052Z,12.40
2023-04-22T19:03:20.078Z,12.30
2023-04-22T19:05:49.037Z,12.20
2023-04-22T19:08:15.711Z,12.20
2023-04-22T19:10:42.844Z,12.10
2023-04-22T19:13:22.244Z,12.10
2023-04-22T19:15:55.271Z,12.00
2023-04-22T19:18:22.103Z,12.00
2023-04-22T19:20:48.978Z,11.90
2023-04-22T19:23:16.328Z,11.90
2023-04-22T19:25:43.143Z,11.80
2023-04-22T19:28:10.064Z,11.70
2023-04-22T19:30:36.742Z,11.70
2023-04-22T19:33:03.584Z,11.60
2023-04-22T19:35:30.412Z,11.50
2023-04-22T19:37:57.147Z,11.40
2023-04-22T19:40:23.846Z,11.40
2023-04-22T19:42:51.038Z,11.30
2023-04-22T19:45:17.867Z,11.20
2023-04-22T19:47:45.522Z,11.20
2023-04-22T19:50:12.855Z,11.20
2023-04-22T19:52:41.994Z,11.10
2023-04-22T19:55:09.959Z,11.10
2023-04-22T19:57:37.677Z,11.00
2023-04-22T20:00:07.719Z,11.00
2023-04-22T20:02:35.670Z,10.90
2023-04-22T20:05:05.564Z,10.90
2023-04-22T20:07:33.252Z,10.90
2023-04-22T20:10:02.326Z,10.80
2023-04-22T20:12:29.448Z,10.80
2023-04-22T20:14:57.950Z,10.80
2023-04-22T20:17:25.836Z,10.70
2023-04-22T20:19:53.870Z,10.70
2023-04-22T20:22:24.751Z,10.60
2023-04-22T20:25:03.984Z,10.60
2023-04-22T20:27:31.879Z,10.60
2023-04-22T20:30:00.745Z,10.60
2023-04-22T20:32:31.490Z,10.60
2023-04-22T20:34:58.870Z,10.60
2023-04-22T20:37:27.046Z,10.60
2023-04-22T20:39:54.505Z,10.60
2023-04-22T20:42:25.507Z,10.60
2023-04-22T20:44:52.232Z,10.50
2023-04-22T20:47:19.430Z,10.40
2023-04-22T20:49:46.538Z,10.40
2023-04-22T20:52:13.604Z,10.40
2023-04-22T20:54:41.053Z,10.30
2023-04-22T20:57:08.187Z,10.20
2023-04-22T20:59:35.746Z,10.20
2023-04-22T21:02:06.719Z,10.20
2023-04-22T21:04:34.427Z,10.10
2023-04-22T21:07:07.143Z,10.10
2023-04-22T21:09:34.532Z,10.00
2023-04-22T21:12:02.324Z,10.00
2023-04-22T21:14:29.687Z,10.00
2023-04-22T21:17:06.053Z,9.90
2023-04-22T21:19:34.194Z,9.90
2023-04-22T21:22:05.165Z,9.80
2023-04-22T21:24:33.530Z,9.80
2023-04-22T21:27:01.694Z,9.70
2023-04-22T21:29:28.984Z,9.80
2023-04-22T21:32:08.218Z,9.70
2023-04-22T21:34:36.408Z,9.60
2023-04-22T21:37:04.036Z,9.60
2023-04-22T21:39:30.861Z,9.60
2023-04-22T21:41:58.358Z,9.60
2023-04-22T21:44:25.410Z,9.50
2023-04-22T21:46:52.088Z,9.50
2023-04-22T21:49:20.511Z,9.50
2023-04-22T21:51:47.826Z,9.50
2023-04-22T21:54:14.539Z,9.40
2023-04-22T21:56:41.539Z,9.40
2023-04-22T21:59:08.436Z,9.40
2023-04-22T22:01:35.447Z,9.40
2023-04-22T22:04:03.330Z,9.30
2023-04-22T22:06:30.723Z,9.20
2023-04-22T22:08:57.461Z,9.20
2023-04-22T22:11:30.701Z,9.20
2023-04-22T22:13:58.437Z,9.10
2023-04-22T22:16:25.982Z,9.10
2023-04-22T22:18:52.988Z,9.10
2023-04-22T22:21:19.739Z,9.00
2023-04-22T22:23:46.519Z,9.00
2023-04-22T22:26:13.506Z,9.00
2023-04-22T22:28:40.284Z,9.00
2023-04-22T22:31:08.008Z,9.00
2023-04-22T22:33:35.155Z,8.90
2023-04-22T22:36:02.378Z,8.90
2023-04-22T22:38:29.143Z,8.90
2023-04-22T22:40:55.975Z,8.90
2023-04-22T22:43:22.690Z,8.80
2023-04-22T22:45:49.532Z,8.80
2023-04-22T22:48:16.548Z,8.80
2023-04-22T22:50:43.651Z,8.80
2023-04-22T22:53:10.593Z,8.70
2023-04-22T22:55:38.503Z,8.70
2023-04-22T22:58:05.284Z,8.60
2023-04-22T23:00:31.982Z,8.60
2023-04-22T23:02:58.923Z,8.60
2023-04-22T23:05:25.876Z,8.70
2023-04-22T23:07:52.887Z,8.60
2023-04-22T23:10:20.321Z,8.60
2023-04-22T23:12:47.613Z,8.50
2023-04-22T23:15:14.637Z,8.60
2023-04-22T23:17:42.945Z,8.50
2023-04-22T23:20:11.204Z,8.50
2023-04-22T23:22:41.770Z,8.50
2023-04-22T23:25:09.146Z,8.50
2023-04-22T23:27:37.919Z,8.50
2023-04-22T23:30:05.408Z,8.50
2023-04-22T23:32:35.456Z,8.50
2023-04-22T23:35:04.084Z,8.50
2023-04-22T23:37:31.600Z,8.50
2023-04-22T23:39:58.458Z,8.50
2023-04-22T23:42:25.287Z,8.50
2023-04-22T23:44:51.986Z,8.50
2023-04-22T23:47:18.782Z,8.50
2023-04-22T23:49:45.789Z,8.40
2023-04-22T23:52:14.069Z,8.40
2023-04-22T23:54:41.734Z,8.30
2023-04-22T23:57:09.088Z,8.30
2023-04-22T23:59:36.004Z,8.30
